sensor_id;sensor_type;location;lat;lon;timestamp;P1;durP1;ratioP1;P2;durP2;ratioP2
50433;SDS011;36361;38.954;-9.002;2023-04-01T00:00:25;40.13;;;8.27;;
50433;SDS011;36361;38.954;-9.002;2023-04-01T00:01:26;41.33;;;8.15;;
50433;SDS011;36361;38.954;-9.002;2023-04-01T00:02:26;34.38;;;8.18;;
50433;SDS011;36361;38.954;-9.002;2023-04-01T00:03:27;32.92;;;6.65;;
50433;SDS011;36361;38.954;-9.002;2023-04-01T00:04:29;39.92;;;8.25;;
50433;SDS011;36361;38.954;-9.002;2023-04-01T00:05:29;34.15;;;6.88;;
50433;SDS011;36361;38.954;-9.002;2023-04-01T00:06:30;36.22;;;7.82;;
50433;SDS011;36361;38.954;-9.002;2023-04-01T00:07:31;37.03;;;8.82;;
50433;SDS011;36361;38.954;-9.002;2023-04-01T00:08:33;40.85;;;8.52;;
50433;SDS011;36361;38.954;-9.002;2023-04-01T00:09:33;36.53;;;7.68;;
50433;SDS011;36361;38.954;-9.002;2023-04-01T00:10:35;38.20;;;7.57;;
50433;SDS011;36361;38.954;-9.002;2023-04-01T00:11:42;37.53;;;8.27;;
50433;SDS011;36361;38.954;-9.002;2023-04-01T00:12:44;34.53;;;8.00;;
50433;SDS011;36361;38.954;-9.002;2023-04-01T00:13:46;41.30;;;9.05;;
50433;SDS011;36361;38.954;-9.002;2023-04-01T00:14:47;36.25;;;7.78;;
50433;SDS011;36361;38.954;-9.002;2023-04-01T00:15:48;40.53;;;8.02;;
50433;SDS011;36361;38.954;-9.002;2023-04-01T00:16:49;43.70;;;8.38;;
50433;SDS011;36361;38.954;-9.002;2023-04-01T00:17:50;38.92;;;6.88;;
50433;SDS011;36361;38.954;-9.002;2023-04-01T00:18:50;29.35;;;7.13;;
50433;SDS011;36361;38.954;-9.002;2023-04-01T00:19:51;25.48;;;6.68;;
50433;SDS011;36361;38.954;-9.002;2023-04-01T00:20:54;37.10;;;7.55;;
50433;SDS011;36361;38.954;-9.002;2023-04-01T00:21:55;35.40;;;8.57;;
50433;SDS011;36361;38.954;-9.002;2023-04-01T00:22:56;35.85;;;8.55;;
50433;SDS011;36361;38.954;-9.002;2023-04-01T00:23:57;36.95;;;9.10;;
50433;SDS011;36361;38.954;-9.002;2023-04-01T00:24:57;31.55;;;7.40;;
50433;SDS011;36361;38.954;-9.002;2023-04-01T00:26:01;40.47;;;7.65;;
50433;SDS011;36361;38.954;-9.002;2023-04-01T00:27:03;36.53;;;8.20;;
50433;SDS011;36361;38.954;-9.002;2023-04-01T00:28:04;37.08;;;8.80;;
50433;SDS011;36361;38.954;-9.002;2023-04-01T00:29:05;38.33;;;8.40;;
50433;SDS011;36361;38.954;-9.002;2023-04-01T00:30:07;36.17;;;7.88;;
50433;SDS011;36361;38.954;-9.002;2023-04-01T00:31:09;32.95;;;8.05;;
50433;SDS011;36361;38.954;-9.002;2023-04-01T00:32:11;33.40;;;6.72;;
50433;SDS011;36361;38.954;-9.002;2023-04-01T00:33:18;37.97;;;6.63;;
50433;SDS011;36361;38.954;-9.002;2023-04-01T00:34:20;40.20;;;7.45;;
50433;SDS011;36361;38.954;-9.002;2023-04-01T00:35:21;32.13;;;7.55;;
50433;SDS011;36361;38.954;-9.002;2023-04-01T00:36:22;34.58;;;7.15;;
50433;SDS011;36361;38.954;-9.002;2023-04-01T00:37:23;32.95;;;6.80;;
50433;SDS011;36361;38.954;-9.002;2023-04-01T00:38:24;36.97;;;7.80;;
50433;SDS011;36361;38.954;-9.002;2023-04-01T00:39:25;33.17;;;7.97;;
50433;SDS011;36361;38.954;-9.002;2023-04-01T00:40:33;30.13;;;7.22;;
50433;SDS011;36361;38.954;-9.002;2023-04-01T00:41:36;44.30;;;8.90;;
50433;SDS011;36361;38.954;-9.002;2023-04-01T00:42:37;29.25;;;6.45;;
50433;SDS011;36361;38.954;-9.002;2023-04-01T00:43:37;39.50;;;7.93;;
50433;SDS011;36361;38.954;-9.002;2023-04-01T00:44:38;32.10;;;7.55;;
50433;SDS011;36361;38.954;-9.002;2023-04-01T00:45:40;31.77;;;6.57;;
50433;SDS011;36361;38.954;-9.002;2023-04-01T00:46:43;29.85;;;6.75;;
50433;SDS011;36361;38.954;-9.002;2023-04-01T00:47:43;34.10;;;7.25;;
50433;SDS011;36361;38.954;-9.002;2023-04-01T00:48:48;34.38;;;7.82;;
50433;SDS011;36361;38.954;-9.002;2023-04-01T00:49:53;33.60;;;7.07;;
50433;SDS011;36361;38.954;-9.002;2023-04-01T00:50:56;35.08;;;6.97;;
50433;SDS011;36361;38.954;-9.002;2023-04-01T00:52:02;34.20;;;8.10;;
50433;SDS011;36361;38.954;-9.002;2023-04-01T00:53:04;35.35;;;7.32;;
50433;SDS011;36361;38.954;-9.002;2023-04-01T00:54:06;29.80;;;7.22;;
50433;SDS011;36361;38.954;-9.002;2023-04-01T00:55:09;35.58;;;7.70;;
50433;SDS011;36361;38.954;-9.002;2023-04-01T00:56:17;38.28;;;8.10;;
50433;SDS011;36361;38.954;-9.002;2023-04-01T00:57:27;30.45;;;7.60;;
50433;SDS011;36361;38.954;-9.002;2023-04-01T00:58:35;30.35;;;6.15;;
50433;SDS011;36361;38.954;-9.002;2023-04-01T00:59:48;31.60;;;7.03;;
50433;SDS011;36361;38.954;-9.002;2023-04-01T01:00:52;29.65;;;6.95;;
50433;SDS011;36361;38.954;-9.002;2023-04-01T01:01:55;31.38;;;6.97;;
50433;SDS011;36361;38.954;-9.002;2023-04-01T01:02:56;24.05;;;5.47;;
50433;SDS011;36361;38.954;-9.002;2023-04-01T01:03:57;31.60;;;7.78;;
50433;SDS011;36361;38.954;-9.002;2023-04-01T01:04:58;29.63;;;7.32;;
50433;SDS011;36361;38.954;-9.002;2023-04-01T01:10:58;33.08;;;6.70;;
50433;SDS011;36361;38.954;-9.002;2023-04-01T01:12:11;36.80;;;8.15;;
50433;SDS011;36361;38.954;-9.002;2023-04-01T01:16:40;35.33;;;7.63;;
50433;SDS011;36361;38.954;-9.002;2023-04-01T01:17:51;34.53;;;7.55;;
50433;SDS011;36361;38.954;-9.002;2023-04-01T01:21:55;35.58;;;7.88;;
50433;SDS011;36361;38.954;-9.002;2023-04-01T01:25:39;35.65;;;8.30;;
50433;SDS011;36361;38.954;-9.002;2023-04-01T01:27:06;30.67;;;7.20;;
50433;SDS011;36361;38.954;-9.002;2023-04-01T01:29:49;35.03;;;7.78;;
50433;SDS011;36361;38.954;-9.002;2023-04-01T01:31:16;33.55;;;6.82;;
50433;SDS011;36361;38.954;-9.002;2023-04-01T01:36:13;33.78;;;7.18;;
50433;SDS011;36361;38.954;-9.002;2023-04-01T01:37:16;37.50;;;8.75;;
50433;SDS011;36361;38.954;-9.002;2023-04-01T01:38:24;32.00;;;7.35;;
50433;SDS011;36361;38.954;-9.002;2023-04-01T01:39:38;35.45;;;8.25;;
50433;SDS011;36361;38.954;-9.002;2023-04-01T01:40:41;37.95;;;8.23;;
50433;SDS011;36361;38.954;-9.002;2023-04-01T01:41:45;38.38;;;8.23;;
50433;SDS011;36361;38.954;-9.002;2023-04-01T01:42:51;40.13;;;9.07;;
50433;SDS011;36361;38.954;-9.002;2023-04-01T01:43:56;39.70;;;8.95;;
50433;SDS011;36361;38.954;-9.002;2023-04-01T01:45:00;36.72;;;8.48;;
50433;SDS011;36361;38.954;-9.002;2023-04-01T01:46:05;34.83;;;7.20;;
50433;SDS011;36361;38.954;-9.002;2023-04-01T01:47:11;43.20;;;8.63;;
50433;SDS011;36361;38.954;-9.002;2023-04-01T01:48:14;35.10;;;7.22;;
50433;SDS011;36361;38.954;-9.002;2023-04-01T01:49:17;40.03;;;8.38;;
50433;SDS011;36361;38.954;-9.002;2023-04-01T01:50:20;34.05;;;7.55;;
50433;SDS011;36361;38.954;-9.002;2023-04-01T01:51:23;37.58;;;7.50;;
50433;SDS011;36361;38.954;-9.002;2023-04-01T01:52:26;35.97;;;7.20;;
50433;SDS011;36361;38.954;-9.002;2023-04-01T01:53:28;33.10;;;6.65;;
50433;SDS011;36361;38.954;-9.002;2023-04-01T01:54:29;35.17;;;6.68;;
50433;SDS011;36361;38.954;-9.002;2023-04-01T01:55:32;32.80;;;7.03;;
50433;SDS011;36361;38.954;-9.002;2023-04-01T01:56:35;36.33;;;8.10;;
50433;SDS011;36361;38.954;-9.002;2023-04-01T01:57:37;29.17;;;6.22;;
50433;SDS011;36361;38.954;-9.002;2023-04-01T01:58:51;36.75;;;7.20;;
50433;SDS011;36361;38.954;-9.002;2023-04-01T01:59:59;34.00;;;7.72;;
50433;SDS011;36361;38.954;-9.002;2023-04-01T02:01:17;36.72;;;7.03;;
50433;SDS011;36361;38.954;-9.002;2023-04-01T02:02:22;28.30;;;6.82;;
50433;SDS011;36361;38.954;-9.002;2023-04-01T02:03:26;34.75;;;6.60;;
50433;SDS011;36361;38.954;-9.002;2023-04-01T02:04:31;33.50;;;7.45;;
50433;SDS011;36361;38.954;-9.002;2023-04-01T02:05:32;35.88;;;8.02;;
50433;SDS011;36361;38.954;-9.002;2023-04-01T02:06:42;43.92;;;8.02;;
50433;SDS011;36361;38.954;-9.002;2023-04-01T02:07:49;30.05;;;6.78;;
50433;SDS011;36361;38.954;-9.002;2023-04-01T02:09:01;32.58;;;7.38;;
50433;SDS011;36361;38.954;-9.002;2023-04-01T02:10:05;33.22;;;6.80;;
50433;SDS011;36361;38.954;-9.002;2023-04-01T02:11:08;33.67;;;7.10;;
50433;SDS011;36361;38.954;-9.002;2023-04-01T02:12:14;39.83;;;7.25;;
50433;SDS011;36361;38.954;-9.002;2023-04-01T02:13:40;29.98;;;7.25;;
50433;SDS011;36361;38.954;-9.002;2023-04-01T02:16:02;33.15;;;7.82;;
50433;SDS011;36361;38.954;-9.002;2023-04-01T02:17:09;33.78;;;6.75;;
50433;SDS011;36361;38.954;-9.002;2023-04-01T02:18:13;33.78;;;7.63;;
50433;SDS011;36361;38.954;-9.002;2023-04-01T02:19:16;36.22;;;6.97;;
50433;SDS011;36361;38.954;-9.002;2023-04-01T02:20:23;34.95;;;8.07;;
50433;SDS011;36361;38.954;-9.002;2023-04-01T02:21:25;41.47;;;7.88;;
50433;SDS011;36361;38.954;-9.002;2023-04-01T02:22:35;39.38;;;7.78;;
50433;SDS011;36361;38.954;-9.002;2023-04-01T02:23:42;33.75;;;7.60;;
50433;SDS011;36361;38.954;-9.002;2023-04-01T02:24:46;38.33;;;7.40;;
50433;SDS011;36361;38.954;-9.002;2023-04-01T02:25:49;35.38;;;6.72;;
50433;SDS011;36361;38.954;-9.002;2023-04-01T02:26:51;34.00;;;7.25;;
50433;SDS011;36361;38.954;-9.002;2023-04-01T02:27:52;36.40;;;7.97;;
50433;SDS011;36361;38.954;-9.002;2023-04-01T02:28:56;38.50;;;7.45;;
50433;SDS011;36361;38.954;-9.002;2023-04-01T02:30:00;26.45;;;6.65;;
50433;SDS011;36361;38.954;-9.002;2023-04-01T02:31:04;33.35;;;6.50;;
50433;SDS011;36361;38.954;-9.002;2023-04-01T02:32:06;39.33;;;6.38;;
50433;SDS011;36361;38.954;-9.002;2023-04-01T02:33:09;32.15;;;7.32;;
50433;SDS011;36361;38.954;-9.002;2023-04-01T02:34:10;34.30;;;7.35;;
50433;SDS011;36361;38.954;-9.002;2023-04-01T02:35:13;32.38;;;7.90;;
50433;SDS011;36361;38.954;-9.002;2023-04-01T02:36:18;27.52;;;7.15;;
50433;SDS011;36361;38.954;-9.002;2023-04-01T02:37:19;36.75;;;7.68;;
50433;SDS011;36361;38.954;-9.002;2023-04-01T02:38:21;29.27;;;6.78;;
50433;SDS011;36361;38.954;-9.002;2023-04-01T02:39:22;33.10;;;6.68;;
50433;SDS011;36361;38.954;-9.002;2023-04-01T02:40:25;36.17;;;6.80;;
50433;SDS011;36361;38.954;-9.002;2023-04-01T02:41:26;29.77;;;6.05;;
50433;SDS011;36361;38.954;-9.002;2023-04-01T02:42:28;40.22;;;6.63;;
50433;SDS011;36361;38.954;-9.002;2023-04-01T02:43:28;29.42;;;6.50;;
50433;SDS011;36361;38.954;-9.002;2023-04-01T02:44:30;25.98;;;6.30;;
50433;SDS011;36361;38.954;-9.002;2023-04-01T02:45:32;30.15;;;6.90;;
50433;SDS011;36361;38.954;-9.002;2023-04-01T02:46:32;35.42;;;6.63;;
50433;SDS011;36361;38.954;-9.002;2023-04-01T02:47:33;30.40;;;7.63;;
50433;SDS011;36361;38.954;-9.002;2023-04-01T02:48:35;34.03;;;7.97;;
50433;SDS011;36361;38.954;-9.002;2023-04-01T02:49:35;35.25;;;7.90;;
50433;SDS011;36361;38.954;-9.002;2023-04-01T02:50:36;37.45;;;7.15;;
50433;SDS011;36361;38.954;-9.002;2023-04-01T02:51:37;32.38;;;7.70;;
50433;SDS011;36361;38.954;-9.002;2023-04-01T02:52:37;35.55;;;8.00;;
50433;SDS011;36361;38.954;-9.002;2023-04-01T02:53:38;35.15;;;8.50;;
50433;SDS011;36361;38.954;-9.002;2023-04-01T02:54:39;31.95;;;7.47;;
50433;SDS011;36361;38.954;-9.002;2023-04-01T02:55:40;35.05;;;7.35;;
50433;SDS011;36361;38.954;-9.002;2023-04-01T02:56:41;31.77;;;6.85;;
50433;SDS011;36361;38.954;-9.002;2023-04-01T02:57:42;37.65;;;7.40;;
50433;SDS011;36361;38.954;-9.002;2023-04-01T02:58:42;39.33;;;8.02;;
50433;SDS011;36361;38.954;-9.002;2023-04-01T02:59:46;41.63;;;8.13;;
50433;SDS011;36361;38.954;-9.002;2023-04-01T03:00:47;39.40;;;7.88;;
50433;SDS011;36361;38.954;-9.002;2023-04-01T03:01:48;38.90;;;8.27;;
50433;SDS011;36361;38.954;-9.002;2023-04-01T03:02:49;32.45;;;7.97;;
50433;SDS011;36361;38.954;-9.002;2023-04-01T03:03:50;32.25;;;7.82;;
50433;SDS011;36361;38.954;-9.002;2023-04-01T03:04:50;39.28;;;8.07;;
50433;SDS011;36361;38.954;-9.002;2023-04-01T03:05:51;35.00;;;6.78;;
50433;SDS011;36361;38.954;-9.002;2023-04-01T03:06:55;38.08;;;7.68;;
50433;SDS011;36361;38.954;-9.002;2023-04-01T03:07:56;28.05;;;7.20;;
50433;SDS011;36361;38.954;-9.002;2023-04-01T03:08:57;40.47;;;7.97;;
50433;SDS011;36361;38.954;-9.002;2023-04-01T03:09:58;35.08;;;7.18;;
50433;SDS011;36361;38.954;-9.002;2023-04-01T03:10:58;31.80;;;6.80;;
50433;SDS011;36361;38.954;-9.002;2023-04-01T03:11:59;37.35;;;8.10;;
50433;SDS011;36361;38.954;-9.002;2023-04-01T03:13:01;29.25;;;7.25;;
50433;SDS011;36361;38.954;-9.002;2023-04-01T03:14:02;32.67;;;7.00;;
50433;SDS011;36361;38.954;-9.002;2023-04-01T03:15:03;36.88;;;7.80;;
50433;SDS011;36361;38.954;-9.002;2023-04-01T03:16:04;38.17;;;8.30;;
50433;SDS011;36361;38.954;-9.002;2023-04-01T03:17:05;35.00;;;6.63;;
50433;SDS011;36361;38.954;-9.002;2023-04-01T03:18:06;36.78;;;7.57;;
50433;SDS011;36361;38.954;-9.002;2023-04-01T03:19:07;37.67;;;8.57;;
50433;SDS011;36361;38.954;-9.002;2023-04-01T03:20:08;38.40;;;8.57;;
50433;SDS011;36361;38.954;-9.002;2023-04-01T03:22:15;39.78;;;8.15;;
50433;SDS011;36361;38.954;-9.002;2023-04-01T03:23:17;42.70;;;8.70;;
50433;SDS011;36361;38.954;-9.002;2023-04-01T03:24:20;37.53;;;8.65;;
50433;SDS011;36361;38.954;-9.002;2023-04-01T03:25:21;39.15;;;9.05;;
50433;SDS011;36361;38.954;-9.002;2023-04-01T03:26:22;44.40;;;8.45;;
50433;SDS011;36361;38.954;-9.002;2023-04-01T03:27:23;36.40;;;7.75;;
50433;SDS011;36361;38.954;-9.002;2023-04-01T03:28:23;44.78;;;8.32;;
50433;SDS011;36361;38.954;-9.002;2023-04-01T03:29:24;33.65;;;8.25;;
50433;SDS011;36361;38.954;-9.002;2023-04-01T03:30:25;39.90;;;7.88;;
50433;SDS011;36361;38.954;-9.002;2023-04-01T03:31:26;37.17;;;7.95;;
50433;SDS011;36361;38.954;-9.002;2023-04-01T03:32:30;32.53;;;7.47;;
50433;SDS011;36361;38.954;-9.002;2023-04-01T03:33:31;36.17;;;8.15;;
50433;SDS011;36361;38.954;-9.002;2023-04-01T03:34:32;36.33;;;7.22;;
50433;SDS011;36361;38.954;-9.002;2023-04-01T03:35:33;31.60;;;6.97;;
50433;SDS011;36361;38.954;-9.002;2023-04-01T03:36:36;42.72;;;7.45;;
50433;SDS011;36361;38.954;-9.002;2023-04-01T03:37:37;42.08;;;8.52;;
50433;SDS011;36361;38.954;-9.002;2023-04-01T03:38:38;33.03;;;7.70;;
50433;SDS011;36361;38.954;-9.002;2023-04-01T03:39:40;42.15;;;7.82;;
50433;SDS011;36361;38.954;-9.002;2023-04-01T03:40:44;37.03;;;8.07;;
50433;SDS011;36361;38.954;-9.002;2023-04-01T03:41:45;33.50;;;7.65;;
50433;SDS011;36361;38.954;-9.002;2023-04-01T03:42:46;41.08;;;8.07;;
50433;SDS011;36361;38.954;-9.002;2023-04-01T03:43:48;41.55;;;9.20;;
50433;SDS011;36361;38.954;-9.002;2023-04-01T03:44:49;41.17;;;8.02;;
50433;SDS011;36361;38.954;-9.002;2023-04-01T03:45:51;41.65;;;9.43;;
50433;SDS011;36361;38.954;-9.002;2023-04-01T03:46:52;35.13;;;6.82;;
50433;SDS011;36361;38.954;-9.002;2023-04-01T03:47:53;36.88;;;7.75;;
50433;SDS011;36361;38.954;-9.002;2023-04-01T03:48:54;28.88;;;7.60;;
50433;SDS011;36361;38.954;-9.002;2023-04-01T03:49:55;35.47;;;8.02;;
50433;SDS011;36361;38.954;-9.002;2023-04-01T03:50:57;44.42;;;9.05;;
50433;SDS011;36361;38.954;-9.002;2023-04-01T03:51:58;39.45;;;7.57;;
50433;SDS011;36361;38.954;-9.002;2023-04-01T03:52:59;37.20;;;8.35;;
50433;SDS011;36361;38.954;-9.002;2023-04-01T03:53:59;35.47;;;8.25;;
50433;SDS011;36361;38.954;-9.002;2023-04-01T03:55:01;36.20;;;8.60;;
50433;SDS011;36361;38.954;-9.002;2023-04-01T03:56:06;40.67;;;8.55;;
50433;SDS011;36361;38.954;-9.002;2023-04-01T03:57:09;36.55;;;7.95;;
50433;SDS011;36361;38.954;-9.002;2023-04-01T03:58:10;33.22;;;8.52;;
50433;SDS011;36361;38.954;-9.002;2023-04-01T03:59:11;37.08;;;8.82;;
50433;SDS011;36361;38.954;-9.002;2023-04-01T04:00:13;38.00;;;7.43;;
50433;SDS011;36361;38.954;-9.002;2023-04-01T04:01:27;35.03;;;7.95;;
50433;SDS011;36361;38.954;-9.002;2023-04-01T04:02:29;36.50;;;8.48;;
50433;SDS011;36361;38.954;-9.002;2023-04-01T04:03:30;34.78;;;7.97;;
50433;SDS011;36361;38.954;-9.002;2023-04-01T04:04:32;36.80;;;7.97;;
50433;SDS011;36361;38.954;-9.002;2023-04-01T04:05:36;48.33;;;9.38;;
50433;SDS011;36361;38.954;-9.002;2023-04-01T04:06:37;34.63;;;8.85;;
50433;SDS011;36361;38.954;-9.002;2023-04-01T04:07:39;35.05;;;8.65;;
50433;SDS011;36361;38.954;-9.002;2023-04-01T04:08:41;33.88;;;8.65;;
50433;SDS011;36361;38.954;-9.002;2023-04-01T04:09:42;39.40;;;8.40;;
50433;SDS011;36361;38.954;-9.002;2023-04-01T04:10:43;36.83;;;7.97;;
50433;SDS011;36361;38.954;-9.002;2023-04-01T04:11:45;50.85;;;9.27;;
50433;SDS011;36361;38.954;-9.002;2023-04-01T04:12:46;36.33;;;7.97;;
50433;SDS011;36361;38.954;-9.002;2023-04-01T04:13:47;35.97;;;8.18;;
50433;SDS011;36361;38.954;-9.002;2023-04-01T04:14:49;42.35;;;9.50;;
50433;SDS011;36361;38.954;-9.002;2023-04-01T04:15:49;31.83;;;7.60;;
50433;SDS011;36361;38.954;-9.002;2023-04-01T04:16:50;35.13;;;7.63;;
50433;SDS011;36361;38.954;-9.002;2023-04-01T04:17:51;40.10;;;8.45;;
50433;SDS011;36361;38.954;-9.002;2023-04-01T04:18:51;37.00;;;8.00;;
50433;SDS011;36361;38.954;-9.002;2023-04-01T04:19:52;36.97;;;7.53;;
50433;SDS011;36361;38.954;-9.002;2023-04-01T04:20:55;32.17;;;6.97;;
50433;SDS011;36361;38.954;-9.002;2023-04-01T04:21:56;37.33;;;7.95;;
50433;SDS011;36361;38.954;-9.002;2023-04-01T04:22:57;25.35;;;6.57;;
50433;SDS011;36361;38.954;-9.002;2023-04-01T04:24:00;34.55;;;7.93;;
50433;SDS011;36361;38.954;-9.002;2023-04-01T04:25:10;27.48;;;7.75;;
50433;SDS011;36361;38.954;-9.002;2023-04-01T04:26:12;33.92;;;7.13;;
50433;SDS011;36361;38.954;-9.002;2023-04-01T04:27:15;33.60;;;7.63;;
50433;SDS011;36361;38.954;-9.002;2023-04-01T04:28:26;36.70;;;7.65;;
50433;SDS011;36361;38.954;-9.002;2023-04-01T04:29:29;24.05;;;7.22;;
50433;SDS011;36361;38.954;-9.002;2023-04-01T04:30:31;32.60;;;7.68;;
50433;SDS011;36361;38.954;-9.002;2023-04-01T04:31:31;34.35;;;8.55;;
50433;SDS011;36361;38.954;-9.002;2023-04-01T04:32:34;37.28;;;7.45;;
50433;SDS011;36361;38.954;-9.002;2023-04-01T04:33:35;32.83;;;7.60;;
50433;SDS011;36361;38.954;-9.002;2023-04-01T04:34:36;31.92;;;7.22;;
50433;SDS011;36361;38.954;-9.002;2023-04-01T04:35:37;36.67;;;7.78;;
50433;SDS011;36361;38.954;-9.002;2023-04-01T04:36:38;33.28;;;8.10;;
50433;SDS011;36361;38.954;-9.002;2023-04-01T04:37:39;37.65;;;7.88;;
50433;SDS011;36361;38.954;-9.002;2023-04-01T04:38:41;38.53;;;8.82;;
50433;SDS011;36361;38.954;-9.002;2023-04-01T04:39:41;33.22;;;7.40;;
50433;SDS011;36361;38.954;-9.002;2023-04-01T04:40:42;32.03;;;7.28;;
50433;SDS011;36361;38.954;-9.002;2023-04-01T04:41:44;29.58;;;6.93;;
50433;SDS011;36361;38.954;-9.002;2023-04-01T04:42:45;33.53;;;8.13;;
50433;SDS011;36361;38.954;-9.002;2023-04-01T04:43:50;33.97;;;7.22;;
50433;SDS011;36361;38.954;-9.002;2023-04-01T04:44:52;35.50;;;7.93;;
50433;SDS011;36361;38.954;-9.002;2023-04-01T04:45:53;30.48;;;7.80;;
50433;SDS011;36361;38.954;-9.002;2023-04-01T04:46:53;36.92;;;7.60;;
50433;SDS011;36361;38.954;-9.002;2023-04-01T04:47:54;39.45;;;7.50;;
50433;SDS011;36361;38.954;-9.002;2023-04-01T04:48:55;27.25;;;7.70;;
50433;SDS011;36361;38.954;-9.002;2023-04-01T04:49:56;35.55;;;7.00;;
50433;SDS011;36361;38.954;-9.002;2023-04-01T04:50:57;31.80;;;7.35;;
50433;SDS011;36361;38.954;-9.002;2023-04-01T04:51:57;34.70;;;7.93;;
50433;SDS011;36361;38.954;-9.002;2023-04-01T04:53:01;30.13;;;6.63;;
50433;SDS011;36361;38.954;-9.002;2023-04-01T04:54:02;36.17;;;8.07;;
50433;SDS011;36361;38.954;-9.002;2023-04-01T04:55:17;34.45;;;7.40;;
50433;SDS011;36361;38.954;-9.002;2023-04-01T04:56:22;24.13;;;6.75;;
50433;SDS011;36361;38.954;-9.002;2023-04-01T04:57:36;30.88;;;6.40;;
50433;SDS011;36361;38.954;-9.002;2023-04-01T04:58:37;35.05;;;7.20;;
50433;SDS011;36361;38.954;-9.002;2023-04-01T04:59:40;34.03;;;7.38;;
50433;SDS011;36361;38.954;-9.002;2023-04-01T05:01:11;32.70;;;8.02;;
50433;SDS011;36361;38.954;-9.002;2023-04-01T05:02:14;32.38;;;7.80;;
50433;SDS011;36361;38.954;-9.002;2023-04-01T05:03:14;33.20;;;7.53;;
50433;SDS011;36361;38.954;-9.002;2023-04-01T05:04:15;29.15;;;6.90;;
50433;SDS011;36361;38.954;-9.002;2023-04-01T05:05:16;30.70;;;6.60;;
50433;SDS011;36361;38.954;-9.002;2023-04-01T05:06:17;30.95;;;7.50;;
50433;SDS011;36361;38.954;-9.002;2023-04-01T05:07:19;36.08;;;7.65;;
50433;SDS011;36361;38.954;-9.002;2023-04-01T05:08:19;31.02;;;7.13;;
50433;SDS011;36361;38.954;-9.002;2023-04-01T05:09:21;29.27;;;6.60;;
50433;SDS011;36361;38.954;-9.002;2023-04-01T05:10:21;38.60;;;8.02;;
50433;SDS011;36361;38.954;-9.002;2023-04-01T05:11:23;28.80;;;6.50;;
50433;SDS011;36361;38.954;-9.002;2023-04-01T05:12:25;33.97;;;7.60;;
50433;SDS011;36361;38.954;-9.002;2023-04-01T05:13:35;28.15;;;6.85;;
50433;SDS011;36361;38.954;-9.002;2023-04-01T05:14:36;43.40;;;8.43;;
50433;SDS011;36361;38.954;-9.002;2023-04-01T05:15:42;36.78;;;7.20;;
50433;SDS011;36361;38.954;-9.002;2023-04-01T05:16:43;33.92;;;7.95;;
50433;SDS011;36361;38.954;-9.002;2023-04-01T05:17:44;38.72;;;7.35;;
50433;SDS011;36361;38.954;-9.002;2023-04-01T05:18:47;36.05;;;7.00;;
50433;SDS011;36361;38.954;-9.002;2023-04-01T05:19:48;28.00;;;6.65;;
50433;SDS011;36361;38.954;-9.002;2023-04-01T05:20:49;30.55;;;7.65;;
50433;SDS011;36361;38.954;-9.002;2023-04-01T05:21:52;29.30;;;6.68;;
50433;SDS011;36361;38.954;-9.002;2023-04-01T05:22:57;30.85;;;7.20;;
50433;SDS011;36361;38.954;-9.002;2023-04-01T05:23:58;31.13;;;6.90;;
50433;SDS011;36361;38.954;-9.002;2023-04-01T05:25:00;30.35;;;7.32;;
50433;SDS011;36361;38.954;-9.002;2023-04-01T05:26:03;24.77;;;6.10;;
50433;SDS011;36361;38.954;-9.002;2023-04-01T05:27:06;33.15;;;6.63;;
50433;SDS011;36361;38.954;-9.002;2023-04-01T05:28:08;35.22;;;6.78;;
50433;SDS011;36361;38.954;-9.002;2023-04-01T05:29:09;35.83;;;7.70;;
50433;SDS011;36361;38.954;-9.002;2023-04-01T05:30:10;32.53;;;6.53;;
50433;SDS011;36361;38.954;-9.002;2023-04-01T05:31:26;38.00;;;7.13;;
50433;SDS011;36361;38.954;-9.002;2023-04-01T05:32:27;33.13;;;6.80;;
50433;SDS011;36361;38.954;-9.002;2023-04-01T05:33:28;30.83;;;6.85;;
50433;SDS011;36361;38.954;-9.002;2023-04-01T05:34:29;30.55;;;7.15;;
50433;SDS011;36361;38.954;-9.002;2023-04-01T05:35:30;32.17;;;6.32;;
50433;SDS011;36361;38.954;-9.002;2023-04-01T05:36:31;34.58;;;6.45;;
50433;SDS011;36361;38.954;-9.002;2023-04-01T05:37:35;27.23;;;6.75;;
50433;SDS011;36361;38.954;-9.002;2023-04-01T05:38:38;30.73;;;7.18;;
50433;SDS011;36361;38.954;-9.002;2023-04-01T05:39:42;34.97;;;7.28;;
50433;SDS011;36361;38.954;-9.002;2023-04-01T05:40:43;31.15;;;7.25;;
50433;SDS011;36361;38.954;-9.002;2023-04-01T05:41:43;33.33;;;7.63;;
50433;SDS011;36361;38.954;-9.002;2023-04-01T05:42:48;42.20;;;7.90;;
50433;SDS011;36361;38.954;-9.002;2023-04-01T05:43:51;28.45;;;6.40;;
50433;SDS011;36361;38.954;-9.002;2023-04-01T05:45:10;28.52;;;6.60;;
50433;SDS011;36361;38.954;-9.002;2023-04-01T05:46:34;31.70;;;6.88;;
50433;SDS011;36361;38.954;-9.002;2023-04-01T05:47:58;29.10;;;6.32;;
50433;SDS011;36361;38.954;-9.002;2023-04-01T05:49:02;31.35;;;7.13;;
50433;SDS011;36361;38.954;-9.002;2023-04-01T05:50:03;34.97;;;7.40;;
50433;SDS011;36361;38.954;-9.002;2023-04-01T05:51:04;27.77;;;5.93;;
50433;SDS011;36361;38.954;-9.002;2023-04-01T05:52:05;33.05;;;7.30;;
50433;SDS011;36361;38.954;-9.002;2023-04-01T05:53:09;32.25;;;6.82;;
50433;SDS011;36361;38.954;-9.002;2023-04-01T05:54:11;31.35;;;6.90;;
50433;SDS011;36361;38.954;-9.002;2023-04-01T05:55:12;36.17;;;7.70;;
50433;SDS011;36361;38.954;-9.002;2023-04-01T05:56:13;32.00;;;6.38;;
50433;SDS011;36361;38.954;-9.002;2023-04-01T05:57:20;31.33;;;5.88;;
50433;SDS011;36361;38.954;-9.002;2023-04-01T05:58:21;36.85;;;8.32;;
50433;SDS011;36361;38.954;-9.002;2023-04-01T05:59:22;33.65;;;7.20;;
50433;SDS011;36361;38.954;-9.002;2023-04-01T06:00:23;29.45;;;6.57;;
50433;SDS011;36361;38.954;-9.002;2023-04-01T06:01:24;37.95;;;8.77;;
50433;SDS011;36361;38.954;-9.002;2023-04-01T06:02:25;40.00;;;8.27;;
50433;SDS011;36361;38.954;-9.002;2023-04-01T06:03:26;29.08;;;7.72;;
50433;SDS011;36361;38.954;-9.002;2023-04-01T06:04:27;34.75;;;7.63;;
50433;SDS011;36361;38.954;-9.002;2023-04-01T06:05:37;25.77;;;6.55;;
50433;SDS011;36361;38.954;-9.002;2023-04-01T06:06:42;28.85;;;7.68;;
50433;SDS011;36361;38.954;-9.002;2023-04-01T06:07:46;31.40;;;6.65;;
50433;SDS011;36361;38.954;-9.002;2023-04-01T06:08:47;44.42;;;7.95;;
50433;SDS011;36361;38.954;-9.002;2023-04-01T06:09:49;28.88;;;6.93;;
50433;SDS011;36361;38.954;-9.002;2023-04-01T06:18:45;24.63;;;5.35;;
50433;SDS011;36361;38.954;-9.002;2023-04-01T06:20:12;22.35;;;5.38;;
50433;SDS011;36361;38.954;-9.002;2023-04-01T06:24:15;18.40;;;4.57;;
50433;SDS011;36361;38.954;-9.002;2023-04-01T06:25:49;18.92;;;4.53;;
50433;SDS011;36361;38.954;-9.002;2023-04-01T06:28:40;17.02;;;4.78;;
50433;SDS011;36361;38.954;-9.002;2023-04-01T06:30:05;18.35;;;3.65;;
50433;SDS011;36361;38.954;-9.002;2023-04-01T06:45:08;18.10;;;3.53;;
50433;SDS011;36361;38.954;-9.002;2023-04-01T06:46:56;18.20;;;3.38;;
50433;SDS011;36361;38.954;-9.002;2023-04-01T06:51:43;18.13;;;3.08;;
50433;SDS011;36361;38.954;-9.002;2023-04-01T06:53:40;15.85;;;3.15;;
50433;SDS011;36361;38.954;-9.002;2023-04-01T06:56:35;19.75;;;3.90;;
50433;SDS011;36361;38.954;-9.002;2023-04-01T06:57:52;17.25;;;3.58;;
50433;SDS011;36361;38.954;-9.002;2023-04-01T06:59:16;15.00;;;3.92;;
50433;SDS011;36361;38.954;-9.002;2023-04-01T07:00:29;16.88;;;3.65;;
50433;SDS011;36361;38.954;-9.002;2023-04-01T07:01:41;15.45;;;3.63;;
50433;SDS011;36361;38.954;-9.002;2023-04-01T07:02:57;20.60;;;4.50;;
50433;SDS011;36361;38.954;-9.002;2023-04-01T07:04:17;16.80;;;4.40;;
50433;SDS011;36361;38.954;-9.002;2023-04-01T07:05:27;29.15;;;4.78;;
50433;SDS011;36361;38.954;-9.002;2023-04-01T07:06:32;18.02;;;4.22;;
50433;SDS011;36361;38.954;-9.002;2023-04-01T07:07:39;21.10;;;4.35;;